sensor_id;sensor_type;location;lat;lon;timestamp;temperature;humidity
7378;DHT22;3730;50.856;12.776;2024-01-30T10:02:33;10.00;1.00
7378;DHT22;3730;50.856;12.776;2024-01-30T10:04:59;10.00;1.00
7378;DHT22;3730;50.856;12.776;2024-01-30T10:07:25;9.70;1.00
7378;DHT22;3730;50.856;12.776;2024-01-30T10:09:51;10.10;1.00
7378;DHT22;3730;50.856;12.776;2024-01-30T10:12:18;10.10;1.00
7378;DHT22;3730;50.856;12.776;2024-01-30T10:14:44;10.20;1.00
7378;DHT22;3730;50.856;12.776;2024-01-30T10:17:11;9.90;1.00
7378;DHT22;3730;50.856;12.776;2024-01-30T10:19:37;10.20;1.00
7378;DHT22;3730;50.856;12.776;2024-01-30T10:22:04;10.20;1.00
7378;DHT22;3730;50.856;12.776;2024-01-30T10:24:30;10.50;1.00
7378;DHT22;3730;50.856;12.776;2024-01-30T10:26:56;10.40;1.00
7378;DHT22;3730;50.856;12.776;2024-01-30T10:29:22;10.50;1.00
7378;DHT22;3730;50.856;12.776;2024-01-30T10:32:05;10.40;1.00
7378;DHT22;3730;50.856;12.776;2024-01-30T10:34:32;10.30;1.00
7378;DHT22;3730;50.856;12.776;2024-01-30T10:39:46;10.50;1.00
7378;DHT22;3730;50.856;12.776;2024-01-30T10:45:00;10.70;1.00
7378;DHT22;3730;50.856;12.776;2024-01-30T10:49:56;10.80;1.00
7378;DHT22;3730;50.856;12.776;2024-01-30T10:52:23;10.80;1.00
7378;DHT22;3730;50.856;12.776;2024-01-30T10:54:51;10.90;1.00
7378;DHT22;3730;50.856;12.776;2024-01-30T10:57:18;10.60;1.00
7378;DHT22;3730;50.856;12.776;2024-01-30T10:59:44;10.90;1.00
7378;DHT22;3730;50.856;12.776;2024-01-30T11:02:10;10.80;1.00
7378;DHT22;3730;50.856;12.776;2024-01-30T11:04:42;11.00;1.00
7378;DHT22;3730;50.856;12.776;2024-01-30T11:07:18;10.90;1.00
7378;DHT22;3730;50.856;12.776;2024-01-30T11:09:59;10.90;1.00
7378;DHT22;3730;50.856;12.776;2024-01-30T11:12:33;10.90;1.00
7378;DHT22;3730;50.856;12.776;2024-01-30T11:15:07;11.10;1.00
7378;DHT22;3730;50.856;12.776;2024-01-30T11:18:01;11.00;1.00
7378;DHT22;3730;50.856;12.776;2024-01-30T11:20:30;11.20;1.00
7378;DHT22;3730;50.856;12.776;2024-01-30T11:23:01;11.00;1.00
7378;DHT22;3730;50.856;12.776;2024-01-30T11:25:32;11.30;1.00
7378;DHT22;3730;50.856;12.776;2024-01-30T11:27:58;11.20;1.00
7378;DHT22;3730;50.856;12.776;2024-01-30T11:35:37;11.20;1.00
7378;DHT22;3730;50.856;12.776;2024-01-30T11:38:06;11.20;1.00
7378;DHT22;3730;50.856;12.776;2024-01-30T11:40:32;11.30;1.00
7378;DHT22;3730;50.856;12.776;2024-01-30T11:42:59;11.10;1.00
7378;DHT22;3730;50.856;12.776;2024-01-30T11:45:30;11.10;1.00
7378;DHT22;3730;50.856;12.776;2024-01-30T11:50:22;11.40;1.00
7378;DHT22;3730;50.856;12.776;2024-01-30T11:52:48;11.20;1.00
7378;DHT22;3730;50.856;12.776;2024-01-30T11:55:15;11.40;1.00
7378;DHT22;3730;50.856;12.776;2024-01-30T11:57:41;11.40;1.00
7378;DHT22;3730;50.856;12.776;2024-01-30T12:00:14;11.60;1.00
7378;DHT22;3730;50.856;12.776;2024-01-30T12:02:40;11.80;1.00
7378;DHT22;3730;50.856;12.776;2024-01-30T12:05:06;11.50;1.00
7378;DHT22;3730;50.856;12.776;2024-01-30T12:07:33;11.50;1.00
7378;DHT22;3730;50.856;12.776;2024-01-30T12:09:58;11.30;1.00
7378;DHT22;3730;50.856;12.776;2024-01-30T12:12:26;11.40;1.00
7378;DHT22;3730;50.856;12.776;2024-01-30T12:14:52;11.50;1.00
7378;DHT22;3730;50.856;12.776;2024-01-30T12:17:31;11.40;1.00
7378;DHT22;3730;50.856;12.776;2024-01-30T12:27:21;11.30;1.00
7378;DHT22;3730;50.856;12.776;2024-01-30T12:32:16;11.40;1.00
7378;DHT22;3730;50.856;12.776;2024-01-30T12:34:42;11.40;1.00
7378;DHT22;3730;50.856;12.776;2024-01-30T12:37:08;11.80;1.00
7378;DHT22;3730;50.856;12.776;2024-01-30T12:39:35;11.40;1.00
7378;DHT22;3730;50.856;12.776;2024-01-30T12:44:27;11.30;1.00
7378;DHT22;3730;50.856;12.776;2024-01-30T12:46:52;11.30;1.00
7378;DHT22;3730;50.856;12.776;2024-01-30T12:54:13;11.20;1.00
7378;DHT22;3730;50.856;12.776;2024-01-30T12:56:38;11.40;1.00
7378;DHT22;3730;50.856;12.776;2024-01-30T13:03:56;11.20;1.00
7378;DHT22;3730;50.856;12.776;2024-01-30T13:06:23;11.40;1.00
7378;DHT22;3730;50.856;12.776;2024-01-30T13:11:15;11.20;1.00
7378;DHT22;3730;50.856;12.776;2024-01-30T13:13:41;11.30;1.00
7378;DHT22;3730;50.856;12.776;2024-01-30T13:18:32;11.30;1.00
7378;DHT22;3730;50.856;12.776;2024-01-30T13:23:24;11.60;1.00
7378;DHT22;3730;50.856;12.776;2024-01-30T13:28:16;11.60;1.00
7378;DHT22;3730;50.856;12.776;2024-01-30T13:35:33;11.40;1.00
7378;DHT22;3730;50.856;12.776;2024-01-30T13:42:51;11.30;1.00
7378;DHT22;3730;50.856;12.776;2024-01-30T13:45:17;11.40;1.00
7378;DHT22;3730;50.856;12.776;2024-01-30T13:47:43;11.30;1.00
7378;DHT22;3730;50.856;12.776;2024-01-30T13:50:08;11.30;1.00
7378;DHT22;3730;50.856;12.776;2024-01-30T13:52:36;11.40;1.00
7378;DHT22;3730;50.856;12.776;2024-01-30T13:55:01;11.30;1.00
7378;DHT22;3730;50.856;12.776;2024-01-30T13:57:27;11.20;1.00
7378;DHT22;3730;50.856;12.776;2024-01-30T14:02:19;11.30;1.00
7378;DHT22;3730;50.856;12.776;2024-01-30T14:04:44;11.20;1.00
7378;DHT22;3730;50.856;12.776;2024-01-30T14:07:10;11.20;1.00
7378;DHT22;3730;50.856;12.776;2024-01-30T14:12:01;11.20;1.00
7378;DHT22;3730;50.856;12.776;2024-01-30T14:16:53;11.30;1.00
7378;DHT22;3730;50.856;12.776;2024-01-30T14:26:37;11.10;1.00
7378;DHT22;3730;50.856;12.776;2024-01-30T14:29:02;11.10;1.00
7378;DHT22;3730;50.856;12.776;2024-01-30T14:33:54;11.30;1.00
7378;DHT22;3730;50.856;12.776;2024-01-30T14:38:46;11.30;1.00
7378;DHT22;3730;50.856;12.776;2024-01-30T14:41:12;11.20;1.00
7378;DHT22;3730;50.856;12.776;2024-01-30T14:43:37;11.00;1.00
7378;DHT22;3730;50.856;12.776;2024-01-30T14:46:03;10.90;1.00
7378;DHT22;3730;50.856;12.776;2024-01-30T14:48:32;11.00;1.00
7378;DHT22;3730;50.856;12.776;2024-01-30T14:53:23;11.10;1.00
7378;DHT22;3730;50.856;12.776;2024-01-30T14:55:49;11.00;1.00
7378;DHT22;3730;50.856;12.776;2024-01-30T15:05:34;10.70;1.00
7378;DHT22;3730;50.856;12.776;2024-01-30T15:10:26;10.90;1.00
7378;DHT22;3730;50.856;12.776;2024-01-30T15:12:52;10.80;1.00
7378;DHT22;3730;50.856;12.776;2024-01-30T15:15:17;10.70;1.00
7378;DHT22;3730;50.856;12.776;2024-01-30T15:17:43;10.80;1.00
7378;DHT22;3730;50.856;12.776;2024-01-30T15:20:09;10.70;1.00
7378;DHT22;3730;50.856;12.776;2024-01-30T15:22:35;10.50;1.00
7378;DHT22;3730;50.856;12.776;2024-01-30T15:25:00;10.60;1.00
7378;DHT22;3730;50.856;12.776;2024-01-30T15:27:26;10.70;1.00
7378;DHT22;3730;50.856;12.776;2024-01-30T15:34:44;10.40;1.00
7378;DHT22;3730;50.856;12.776;2024-01-30T15:37:09;10.40;1.00
7378;DHT22;3730;50.856;12.776;2024-01-30T15:39:35;10.30;1.00
7378;DHT22;3730;50.856;12.776;2024-01-30T15:42:00;10.30;1.00
7378;DHT22;3730;50.856;12.776;2024-01-30T15:51:44;10.10;1.00
7378;DHT22;3730;50.856;12.776;2024-01-30T15:54:10;10.30;1.00
7378;DHT22;3730;50.856;12.776;2024-01-30T15:56:35;10.00;1.00
7378;DHT22;3730;50.856;12.776;2024-01-30T15:59:01;10.10;1.00
7378;DHT22;3730;50.856;12.776;2024-01-30T16:03:53;10.20;1.00
7378;DHT22;3730;50.856;12.776;2024-01-30T16:06:18;10.00;1.00
7378;DHT22;3730;50.856;12.776;2024-01-30T16:08:44;9.70;1.00
7378;DHT22;3730;50.856;12.776;2024-01-30T16:11:09;9.80;1.00
7378;DHT22;3730;50.856;12.776;2024-01-30T16:16:04;10.00;1.00
7378;DHT22;3730;50.856;12.776;2024-01-30T16:18:31;10.00;1.00
7378;DHT22;3730;50.856;12.776;2024-01-30T16:20:57;9.80;1.00
7378;DHT22;3730;50.856;12.776;2024-01-30T16:23:23;9.80;1.00
7378;DHT22;3730;50.856;12.776;2024-01-30T16:25:49;9.80;1.00
7378;DHT22;3730;50.856;12.776;2024-01-30T16:28:15;9.80;1.00
7378;DHT22;3730;50.856;12.776;2024-01-30T16:30:40;10.00;1.00
7378;DHT22;3730;50.856;12.776;2024-01-30T16:33:06;9.70;1.00
7378;DHT22;3730;50.856;12.776;2024-01-30T16:40:26;9.60;1.00
7378;DHT22;3730;50.856;12.776;2024-01-30T16:42:51;9.70;1.00
7378;DHT22;3730;50.856;12.776;2024-01-30T16:45:17;9.70;1.00
7378;DHT22;3730;50.856;12.776;2024-01-30T16:50:09;9.60;1.00
7378;DHT22;3730;50.856;12.776;2024-01-30T16:55:01;9.40;1.00
7378;DHT22;3730;50.856;12.776;2024-01-30T16:59:52;9.60;1.00
7378;DHT22;3730;50.856;12.776;2024-01-30T17:02:18;9.40;1.00
7378;DHT22;3730;50.856;12.776;2024-01-30T17:07:10;9.50;1.00
7378;DHT22;3730;50.856;12.776;2024-01-30T17:09:35;9.30;1.00
7378;DHT22;3730;50.856;12.776;2024-01-30T17:12:01;9.40;1.00
7378;DHT22;3730;50.856;12.776;2024-01-30T17:16:54;9.60;1.00
7378;DHT22;3730;50.856;12.776;2024-01-30T17:19:20;9.30;1.00
7378;DHT22;3730;50.856;12.776;2024-01-30T17:24:12;9.10;1.00
7378;DHT22;3730;50.856;12.776;2024-01-30T17:26:41;9.50;1.00
7378;DHT22;3730;50.856;12.776;2024-01-30T17:29:07;9.30;1.00
7378;DHT22;3730;50.856;12.776;2024-01-30T17:31:32;9.30;1.00
7378;DHT22;3730;50.856;12.776;2024-01-30T17:33:58;9.30;1.00
7378;DHT22;3730;50.856;12.776;2024-01-30T17:38:50;9.50;1.00
7378;DHT22;3730;50.856;12.776;2024-01-30T17:41:17;9.50;1.00
7378;DHT22;3730;50.856;12.776;2024-01-30T17:43:42;9.50;1.00
7378;DHT22;3730;50.856;12.776;2024-01-30T17:46:08;9.40;1.00
7378;DHT22;3730;50.856;12.776;2024-01-30T17:48:36;9.30;1.00
7378;DHT22;3730;50.856;12.776;2024-01-30T17:51:02;9.40;1.00
7378;DHT22;3730;50.856;12.776;2024-01-30T17:55:54;9.20;1.00
7378;DHT22;3730;50.856;12.776;2024-01-30T17:58:21;9.20;1.00
7378;DHT22;3730;50.856;12.776;2024-01-30T18:03:13;9.20;1.00
7378;DHT22;3730;50.856;12.776;2024-01-30T18:05:38;9.40;1.00
7378;DHT22;3730;50.856;12.776;2024-01-30T18:08:04;9.00;1.00
7378;DHT22;3730;50.856;12.776;2024-01-30T18:10:32;9.20;1.00
7378;DHT22;3730;50.856;12.776;2024-01-30T18:12:57;9.10;1.00
7378;DHT22;3730;50.856;12.776;2024-01-30T18:17:50;9.20;1.00
7378;DHT22;3730;50.856;12.776;2024-01-30T18:20:16;9.10;1.00
7378;DHT22;3730;50.856;12.776;2024-01-30T18:25:10;9.20;1.00
7378;DHT22;3730;50.856;12.776;2024-01-30T18:27:35;9.20;1.00
7378;DHT22;3730;50.856;12.776;2024-01-30T18:30:02;9.20;1.00
7378;DHT22;3730;50.856;12.776;2024-01-30T18:32:28;9.10;1.00
7378;DHT22;3730;50.856;12.776;2024-01-30T18:34:54;9.10;1.00
7378;DHT22;3730;50.856;12.776;2024-01-30T18:37:19;8.90;1.00
7378;DHT22;3730;50.856;12.776;2024-01-30T18:39:45;9.10;1.00
7378;DHT22;3730;50.856;12.776;2024-01-30T18:47:03;9.20;1.00
7378;DHT22;3730;50.856;12.776;2024-01-30T18:49:28;9.10;1.00
7378;DHT22;3730;50.856;12.776;2024-01-30T18:51:54;9.30;1.00
7378;DHT22;3730;50.856;12.776;2024-01-30T18:54:20;9.00;1.00
7378;DHT22;3730;50.856;12.776;2024-01-30T18:56:46;8.60;1.00
7378;DHT22;3730;50.856;12.776;2024-01-30T18:59:12;8.80;1.00
7378;DHT22;3730;50.856;12.776;2024-01-30T19:04:08;9.10;1.00
7378;DHT22;3730;50.856;12.776;2024-01-30T19:06:35;8.80;1.00
7378;DHT22;3730;50.856;12.776;2024-01-30T19:09:01;8.90;1.00
7378;DHT22;3730;50.856;12.776;2024-01-30T19:11:27;8.70;1.00
7378;DHT22;3730;50.856;12.776;2024-01-30T19:13:52;8.90;1.00
7378;DHT22;3730;50.856;12.776;2024-01-30T19:16:18;8.80;1.00
7378;DHT22;3730;50.856;12.776;2024-01-30T19:18:44;8.80;1.00
7378;DHT22;3730;50.856;12.776;2024-01-30T19:21:10;8.80;1.00
7378;DHT22;3730;50.856;12.776;2024-01-30T19:23:36;8.70;1.00
7378;DHT22;3730;50.856;12.776;2024-01-30T19:26:02;8.60;1.00
7378;DHT22;3730;50.856;12.776;2024-01-30T19:28:28;8.80;1.00
7378;DHT22;3730;50.856;12.776;2024-01-30T19:30:54;8.60;1.00
7378;DHT22;3730;50.856;12.776;2024-01-30T19:33:19;8.90;1.00
7378;DHT22;3730;50.856;12.776;2024-01-30T19:35:45;8.90;1.00
7378;DHT22;3730;50.856;12.776;2024-01-30T19:50:23;8.70;1.00
7378;DHT22;3730;50.856;12.776;2024-01-30T19:52:49;8.70;1.00
7378;DHT22;3730;50.856;12.776;2024-01-30T19:55:14;8.80;1.00
7378;DHT22;3730;50.856;12.776;2024-01-30T19:57:40;8.70;1.00
7378;DHT22;3730;50.856;12.776;2024-01-30T20:00:06;8.60;1.00
7378;DHT22;3730;50.856;12.776;2024-01-30T20:02:33;8.80;1.00
7378;DHT22;3730;50.856;12.776;2024-01-30T20:04:58;8.60;1.00
7378;DHT22;3730;50.856;12.776;2024-01-30T20:09:50;8.80;1.00
7378;DHT22;3730;50.856;12.776;2024-01-30T20:14:42;8.80;1.00
7378;DHT22;3730;50.856;12.776;2024-01-30T20:17:07;8.70;1.00
7378;DHT22;3730;50.856;12.776;2024-01-30T20:19:39;8.60;1.00
7378;DHT22;3730;50.856;12.776;2024-01-30T20:22:04;8.90;1.00
7378;DHT22;3730;50.856;12.776;2024-01-30T20:29:22;8.60;1.00
7378;DHT22;3730;50.856;12.776;2024-01-30T20:31:48;8.70;1.00
7378;DHT22;3730;50.856;12.776;2024-01-30T20:34:14;8.70;1.00
7378;DHT22;3730;50.856;12.776;2024-01-30T20:36:42;8.60;1.00
7378;DHT22;3730;50.856;12.776;2024-01-30T20:39:12;8.50;1.00
7378;DHT22;3730;50.856;12.776;2024-01-30T20:41:38;8.60;1.00
7378;DHT22;3730;50.856;12.776;2024-01-30T20:44:04;8.70;1.00
7378;DHT22;3730;50.856;12.776;2024-01-30T20:46:30;8.60;1.00
7378;DHT22;3730;50.856;12.776;2024-01-30T20:48:55;8.50;1.00
7378;DHT22;3730;50.856;12.776;2024-01-30T20:51:21;8.50;1.00
7378;DHT22;3730;50.856;12.776;2024-01-30T20:53:47;8.60;1.00
7378;DHT22;3730;50.856;12.776;2024-01-30T20:56:12;8.50;1.00
7378;DHT22;3730;50.856;12.776;2024-01-30T20:58:39;8.40;1.00
7378;DHT22;3730;50.856;12.776;2024-01-30T21:01:05;8.40;1.00
7378;DHT22;3730;50.856;12.776;2024-01-30T21:03:31;8.50;1.00
7378;DHT22;3730;50.856;12.776;2024-01-30T21:05:57;8.50;1.00
7378;DHT22;3730;50.856;12.776;2024-01-30T21:13:16;8.30;1.00
7378;DHT22;3730;50.856;12.776;2024-01-30T21:15:42;8.40;1.00
